createdAt,value
2022-08-17T00:02:01.447Z,30.00
2022-08-17T00:04:57.486Z,29.99
2022-08-17T00:07:46.112Z,29.99
2022-08-17T00:10:34.646Z,29.98
2022-08-17T00:13:25.959Z,29.96
2022-08-17T00:16:16.782Z,29.94
2022-08-17T00:19:08.837Z,29.97
2022-08-17T00:22:29.917Z,29.95
2022-08-17T00:25:15.082Z,29.93
2022-08-17T00:28:03.799Z,29.93
2022-08-17T00:30:53.834Z,29.93
2022-08-17T00:33:45.361Z,29.88
2022-08-17T00:36:34.223Z,29.86
2022-08-17T00:39:24.134Z,29.86
2022-08-17T00:42:15.527Z,29.84
2022-08-17T00:45:04.999Z,29.83
2022-08-17T00:47:53.489Z,29.81
2022-08-17T00:50:45.394Z,29.80
2022-08-17T00:53:36.685Z,29.79
2022-08-17T00:56:31.247Z,29.80
2022-08-17T00:59:22.379Z,29.84
2022-08-17T01:02:11.789Z,29.81
2022-08-17T01:05:00.408Z,29.80
2022-08-17T01:07:50.721Z,29.81
2022-08-17T01:11:01.122Z,29.84
2022-08-17T01:13:51.589Z,29.81
2022-08-17T01:16:40.403Z,29.82
2022-08-17T01:19:31.623Z,29.84
2022-08-17T01:22:23.590Z,29.79
2022-08-17T01:25:13.367Z,29.78
2022-08-17T01:28:02.343Z,29.79
2022-08-17T01:30:57.879Z,29.75
2022-08-17T01:33:47.919Z,29.72
2022-08-17T01:36:36.800Z,29.72
2022-08-17T01:39:35.885Z,29.72
2022-08-17T01:42:26.234Z,29.74
2022-08-17T01:45:18.642Z,29.72
2022-08-17T01:48:07.448Z,29.74
2022-08-17T01:50:55.993Z,29.73
2022-08-17T01:53:47.744Z,29.73
2022-08-17T01:56:42.420Z,29.67
2022-08-17T01:59:31.007Z,29.64
2022-08-17T02:02:30.801Z,29.63
2022-08-17T02:05:20.121Z,29.61
2022-08-17T02:08:08.870Z,29.64
2022-08-17T02:11:14.648Z,29.64
2022-08-17T02:14:05.110Z,29.58
2022-08-17T02:16:54.326Z,29.53
2022-08-17T02:19:42.836Z,29.52
2022-08-17T02:22:31.881Z,29.49
2022-08-17T02:25:22.659Z,29.51
2022-08-17T02:28:12.747Z,29.52
2022-08-17T02:31:07.663Z,29.47
2022-08-17T02:34:00.492Z,29.44
2022-08-17T02:36:53.042Z,29.42
2022-08-17T02:39:41.611Z,29.39
2022-08-17T02:42:33.870Z,29.44
2022-08-17T02:45:24.434Z,29.42
2022-08-17T02:48:14.297Z,29.44
2022-08-17T02:51:19.299Z,29.40
2022-08-17T02:54:39.447Z,29.42
2022-08-17T02:57:16.347Z,29.45
2022-08-17T03:00:09.659Z,29.45
2022-08-17T03:02:58.840Z,29.39
2022-08-17T03:05:51.247Z,29.39
2022-08-17T03:08:40.708Z,29.39
2022-08-17T03:11:29.224Z,29.40
2022-08-17T03:14:17.770Z,29.38
2022-08-17T03:17:06.620Z,29.37
2022-08-17T03:19:55.243Z,29.35
2022-08-17T03:22:53.352Z,29.30
2022-08-17T03:25:46.034Z,29.27
2022-08-17T03:28:34.652Z,29.24
2022-08-17T03:31:23.199Z,29.22
2022-08-17T03:34:11.673Z,29.22
2022-08-17T03:37:00.179Z,29.19
2022-08-17T03:39:50.059Z,29.16
2022-08-17T03:42:40.172Z,29.13
2022-08-17T03:45:42.635Z,29.13
2022-08-17T03:48:49.653Z,29.09
2022-08-17T03:51:55.941Z,29.05
2022-08-17T03:55:02.997Z,29.03
2022-08-17T03:57:52.848Z,29.02
2022-08-17T04:00:45.687Z,28.98
2022-08-17T04:03:34.392Z,29.02
2022-08-17T04:06:22.870Z,29.00
2022-08-17T04:09:12.238Z,29.04
2022-08-17T04:12:02.452Z,29.01
2022-08-17T04:14:55.224Z,28.99
2022-08-17T04:17:45.805Z,28.99
2022-08-17T04:20:34.924Z,29.04
2022-08-17T04:23:23.547Z,29.04
2022-08-17T04:26:12.499Z,29.06
2022-08-17T04:29:21.590Z,29.06
2022-08-17T04:32:11.430Z,29.12
2022-08-17T04:35:00.856Z,29.14
2022-08-17T04:37:49.359Z,29.14
2022-08-17T04:40:56.017Z,29.24
2022-08-17T04:43:55.953Z,29.18
2022-08-17T04:46:44.506Z,29.16
2022-08-17T04:49:35.056Z,29.18
2022-08-17T04:52:29.784Z,29.18
2022-08-17T04:55:31.919Z,29.21
2022-08-17T04:58:20.472Z,29.28
2022-08-17T05:01:09.299Z,29.34
2022-08-17T05:04:00.114Z,29.32
2022-08-17T05:07:08.317Z,29.30
2022-08-17T05:09:56.751Z,29.29
2022-08-17T05:12:45.378Z,29.30
2022-08-17T05:15:36.078Z,29.32
2022-08-17T05:18:24.863Z,29.31
2022-08-17T05:21:13.799Z,29.31
2022-08-17T05:24:09.696Z,29.31
2022-08-17T05:27:17.786Z,29.32
2022-08-17T05:30:08.770Z,29.31
2022-08-17T05:32:59.904Z,29.31
2022-08-17T05:35:50.297Z,29.33
2022-08-17T05:38:39.011Z,29.36
2022-08-17T05:41:28.927Z,29.35
2022-08-17T05:44:17.963Z,29.36
2022-08-17T05:47:09.943Z,29.37
2022-08-17T05:49:59.747Z,29.37
2022-08-17T05:52:58.441Z,29.38
2022-08-17T05:55:50.790Z,29.41
2022-08-17T05:58:46.871Z,29.42
2022-08-17T06:01:40.757Z,29.43
2022-08-17T06:04:34.622Z,29.42
2022-08-17T06:07:30.231Z,29.42
2022-08-17T06:10:25.147Z,29.43
2022-08-17T06:13:20.061Z,29.46
2022-08-17T06:16:33.175Z,29.46
2022-08-17T06:19:28.912Z,29.48
2022-08-17T06:22:20.773Z,29.48
2022-08-17T06:25:14.820Z,29.54
2022-08-17T06:28:05.251Z,29.60
2022-08-17T06:31:00.823Z,29.63
2022-08-17T06:33:51.872Z,29.66
2022-08-17T06:36:50.325Z,29.72
2022-08-17T06:39:48.415Z,29.74
2022-08-17T06:43:02.092Z,29.76
2022-08-17T06:45:59.452Z,29.77
2022-08-17T06:49:07.440Z,29.79
2022-08-17T06:51:58.967Z,29.81
2022-08-17T06:54:56.033Z,29.82
2022-08-17T06:57:47.825Z,29.85
2022-08-17T07:00:41.753Z,29.86
2022-08-17T07:03:37.569Z,29.86
2022-08-17T07:06:31.252Z,29.88
2022-08-17T07:09:31.212Z,29.91
2022-08-17T07:12:23.420Z,29.93
2022-08-17T07:15:14.762Z,29.95
2022-08-17T07:18:03.907Z,29.97
2022-08-17T07:20:55.853Z,29.99
2022-08-17T07:23:56.598Z,30.00
2022-08-17T07:26:46.635Z,30.02
2022-08-17T07:29:40.234Z,30.02
2022-08-17T07:32:32.487Z,30.04
2022-08-17T07:35:23.570Z,30.07
2022-08-17T07:38:28.536Z,30.09
2022-08-17T07:41:21.883Z,30.12
2022-08-17T07:44:14.268Z,30.13
2022-08-17T07:47:20.451Z,30.13
2022-08-17T07:50:27.040Z,30.14
2022-08-17T07:53:19.229Z,30.17
2022-08-17T07:56:07.941Z,30.17
2022-08-17T07:59:08.334Z,30.19
2022-08-17T08:02:31.873Z,30.21
2022-08-17T08:05:49.715Z,30.24
2022-08-17T08:08:42.252Z,30.26
2022-08-17T08:11:32.991Z,30.26
2022-08-17T08:14:29.441Z,30.27
2022-08-17T08:17:26.138Z,30.29
2022-08-17T08:20:47.773Z,30.31
2022-08-17T08:23:35.362Z,30.32
2022-08-17T08:26:29.510Z,30.33
2022-08-17T08:29:23.613Z,30.36
2022-08-17T08:32:18.232Z,30.39
2022-08-17T08:35:10.827Z,30.38
2022-08-17T08:38:05.968Z,30.43
2022-08-17T08:41:05.744Z,30.43
2022-08-17T08:44:03.636Z,30.45
2022-08-17T08:47:00.454Z,30.48
2022-08-17T08:50:31.809Z,30.49
2022-08-17T08:53:24.853Z,30.49
2022-08-17T08:56:18.621Z,30.49
2022-08-17T08:59:14.894Z,30.52
2022-08-17T09:02:10.744Z,30.52
2022-08-17T09:05:15.539Z,30.54
2022-08-17T09:08:12.240Z,30.55
2022-08-17T09:11:06.040Z,30.56
2022-08-17T09:14:00.452Z,30.57
2022-08-17T09:16:58.045Z,30.58
2022-08-17T09:19:48.506Z,30.61
2022-08-17T09:22:42.653Z,30.62
2022-08-17T09:25:34.389Z,30.64
2022-08-17T09:28:29.465Z,30.64
2022-08-17T09:31:24.046Z,30.67
2022-08-17T09:34:15.458Z,30.70
2022-08-17T09:37:17.740Z,30.73
2022-08-17T09:40:26.754Z,30.75
2022-08-17T09:43:27.767Z,30.78
2022-08-17T09:46:18.749Z,30.79
2022-08-17T09:49:12.239Z,30.81
2022-08-17T09:52:04.737Z,30.82
2022-08-17T09:54:55.282Z,30.82
2022-08-17T09:57:58.657Z,30.85
2022-08-17T10:00:53.461Z,30.84
2022-08-17T10:04:01.398Z,30.85
2022-08-17T10:06:57.631Z,30.86
2022-08-17T10:10:03.958Z,30.87
2022-08-17T10:12:59.183Z,30.91
2022-08-17T10:15:52.635Z,30.92
2022-08-17T10:18:52.282Z,30.93
2022-08-17T10:22:01.065Z,30.97
2022-08-17T10:25:23.263Z,30.96
2022-08-17T10:28:20.292Z,30.97
2022-08-17T10:31:33.549Z,30.97
2022-08-17T10:34:41.232Z,30.99
2022-08-17T10:37:49.219Z,31.00
2022-08-17T10:40:45.447Z,31.02
2022-08-17T10:43:44.630Z,31.03
2022-08-17T10:47:02.966Z,31.04
2022-08-17T10:49:54.527Z,31.06
2022-08-17T10:52:49.323Z,31.03
2022-08-17T10:55:39.125Z,31.05
2022-08-17T10:58:42.180Z,31.07
2022-08-17T11:02:03.304Z,31.11
2022-08-17T11:04:59.815Z,31.10
2022-08-17T11:07:59.865Z,31.10
2022-08-17T11:11:00.312Z,31.11
2022-08-17T11:13:55.029Z,31.13
2022-08-17T11:16:51.776Z,31.15
2022-08-17T11:20:14.943Z,31.15
2022-08-17T11:23:30.235Z,31.16
2022-08-17T11:26:26.007Z,31.16
2022-08-17T11:29:24.789Z,31.16
2022-08-17T11:32:31.199Z,31.18
2022-08-17T11:35:36.172Z,31.19
2022-08-17T11:38:31.269Z,31.20
2022-08-17T11:41:22.276Z,31.19
2022-08-17T11:44:24.509Z,31.24
2022-08-17T11:47:34.838Z,31.24
2022-08-17T11:50:55.947Z,31.26
2022-08-17T11:54:32.319Z,31.28
2022-08-17T11:58:05.910Z,31.30
2022-08-17T12:00:58.345Z,31.36
2022-08-17T12:03:55.241Z,31.32
2022-08-17T12:06:47.285Z,31.36
2022-08-17T12:09:39.646Z,31.41
2022-08-17T12:12:33.357Z,31.37
2022-08-17T12:15:29.562Z,31.39
2022-08-17T12:18:24.504Z,31.39
2022-08-17T12:21:28.933Z,31.36
2022-08-17T12:24:29.190Z,31.37
2022-08-17T12:27:43.133Z,31.37
2022-08-17T12:30:33.784Z,31.36
2022-08-17T12:33:28.669Z,31.37
2022-08-17T12:36:20.878Z,31.39
2022-08-17T12:39:13.819Z,31.38
2022-08-17T12:42:04.652Z,31.40
2022-08-17T12:44:53.132Z,31.39
2022-08-17T12:47:42.349Z,31.43
2022-08-17T12:50:32.312Z,31.40
2022-08-17T12:53:24.747Z,31.43
2022-08-17T12:56:14.962Z,31.41
2022-08-17T12:59:03.972Z,31.40
2022-08-17T13:01:53.574Z,31.40
2022-08-17T13:04:42.170Z,31.40
2022-08-17T13:07:35.793Z,31.41
2022-08-17T13:10:32.391Z,31.44
2022-08-17T13:13:23.214Z,31.42
2022-08-17T13:16:18.193Z,31.54
2022-08-17T13:19:09.537Z,31.56
2022-08-17T13:22:00.298Z,31.58
2022-08-17T13:24:54.481Z,31.58
2022-08-17T13:27:44.114Z,31.56
2022-08-17T13:30:33.846Z,31.57
2022-08-17T13:33:43.427Z,31.57
2022-08-17T13:36:33.488Z,31.58
2022-08-17T13:39:24.316Z,31.59
2022-08-17T13:42:32.759Z,31.61
2022-08-17T13:45:50.814Z,31.60
2022-08-17T13:48:39.677Z,31.61
2022-08-17T13:51:31.406Z,31.62
2022-08-17T13:54:25.161Z,31.64
2022-08-17T13:57:21.852Z,31.74
2022-08-17T14:00:19.446Z,31.77
2022-08-17T14:03:07.979Z,31.83
2022-08-17T14:05:56.482Z,31.81
2022-08-17T14:08:44.905Z,31.73
2022-08-17T14:11:33.607Z,31.75
2022-08-17T14:14:23.617Z,31.76
2022-08-17T14:17:13.995Z,31.74
2022-08-17T14:20:02.447Z,31.77
2022-08-17T14:22:52.929Z,31.78
2022-08-17T14:25:41.474Z,31.78
2022-08-17T14:28:29.985Z,31.88
2022-08-17T14:31:19.276Z,31.85
2022-08-17T14:34:10.441Z,31.89
2022-08-17T14:36:59.009Z,31.85
2022-08-17T14:39:47.623Z,31.86
2022-08-17T14:42:38.206Z,31.87
2022-08-17T14:45:31.946Z,31.86
2022-08-17T14:48:21.864Z,31.88
2022-08-17T14:51:11.990Z,31.87
2022-08-17T14:54:00.453Z,31.91
2022-08-17T14:56:48.961Z,31.91
2022-08-17T14:59:45.545Z,31.91
2022-08-17T15:02:45.450Z,31.94
2022-08-17T15:05:36.488Z,31.92
2022-08-17T15:08:26.361Z,31.94
2022-08-17T15:11:14.972Z,31.94
2022-08-17T15:14:03.422Z,31.96
2022-08-17T15:16:51.885Z,31.93
2022-08-17T15:19:40.633Z,31.95
2022-08-17T15:22:29.546Z,31.95
2022-08-17T15:25:22.123Z,31.96
2022-08-17T15:28:10.693Z,31.95
2022-08-17T15:30:59.210Z,31.94
2022-08-17T15:33:47.785Z,31.97
2022-08-17T15:36:36.342Z,32.01
2022-08-17T15:39:24.891Z,32.03
2022-08-17T15:42:14.726Z,32.02
2022-08-17T15:45:06.847Z,31.98
2022-08-17T15:47:55.627Z,32.02
2022-08-17T15:50:45.161Z,32.01
2022-08-17T15:53:33.710Z,32.05
2022-08-17T15:56:22.493Z,32.11
2022-08-17T15:59:12.450Z,32.10
2022-08-17T16:03:14.773Z,32.08
2022-08-17T16:05:12.367Z,32.05
2022-08-17T16:08:02.036Z,32.04
2022-08-17T16:10:51.535Z,32.07
2022-08-17T16:13:40.678Z,32.14
2022-08-17T16:16:31.325Z,32.17
2022-08-17T16:19:19.940Z,32.17
2022-08-17T16:22:10.572Z,32.18
2022-08-17T16:24:59.061Z,32.17
2022-08-17T16:27:48.267Z,32.17
2022-08-17T16:30:37.267Z,32.16
2022-08-17T16:33:27.163Z,32.17
2022-08-17T16:36:16.712Z,32.13
2022-08-17T16:39:05.371Z,32.14
2022-08-17T16:41:53.857Z,32.09
2022-08-17T16:44:42.327Z,32.08
2022-08-17T16:47:30.831Z,32.09
2022-08-17T16:50:22.600Z,32.08
2022-08-17T16:53:16.199Z,32.06
2022-08-17T16:56:07.555Z,32.04
2022-08-17T16:58:56.144Z,32.01
2022-08-17T17:01:44.688Z,32.10
2022-08-17T17:04:35.171Z,32.11
2022-08-17T17:08:00.730Z,32.03
2022-08-17T17:10:52.691Z,31.95
2022-08-17T17:13:46.784Z,31.97
2022-08-17T17:16:39.115Z,31.92
2022-08-17T17:19:35.226Z,31.94
2022-08-17T17:22:27.617Z,31.93
2022-08-17T17:25:21.260Z,31.85
2022-08-17T17:28:16.813Z,31.85
2022-08-17T17:31:09.995Z,31.87
2022-08-17T17:34:01.398Z,31.85
2022-08-17T17:36:53.847Z,31.83
2022-08-17T17:39:46.300Z,31.84
2022-08-17T17:42:35.683Z,31.84
2022-08-17T17:45:27.401Z,31.79
2022-08-17T17:48:15.871Z,31.82
2022-08-17T17:51:10.415Z,31.83
2022-08-17T17:54:00.196Z,31.85
2022-08-17T17:56:55.675Z,31.85
2022-08-17T17:59:48.294Z,31.82
2022-08-17T18:02:51.454Z,31.78
2022-08-17T18:06:08.162Z,31.77
2022-08-17T18:09:10.283Z,31.74
2022-08-17T18:12:11.929Z,31.74
2022-08-17T18:15:11.128Z,31.74
2022-08-17T18:18:23.325Z,31.71
2022-08-17T18:21:19.310Z,31.70
2022-08-17T18:24:10.745Z,31.67
2022-08-17T18:27:01.285Z,31.65
2022-08-17T18:29:50.090Z,31.64
2022-08-17T18:32:40.793Z,31.65
2022-08-17T18:35:35.163Z,31.63
2022-08-17T18:38:30.261Z,31.63
2022-08-17T18:41:23.512Z,31.60
2022-08-17T18:44:25.926Z,31.59
2022-08-17T18:47:16.331Z,31.61
2022-08-17T18:50:26.346Z,31.57
2022-08-17T18:53:37.485Z,31.57
2022-08-17T18:56:31.823Z,31.54
2022-08-17T18:59:27.864Z,31.54
2022-08-17T19:02:38.692Z,31.55
2022-08-17T19:05:35.982Z,31.56
2022-08-17T19:08:34.256Z,31.54
2022-08-17T19:11:28.758Z,31.56
2022-08-17T19:14:29.205Z,31.52
2022-08-17T19:17:24.851Z,31.52
2022-08-17T19:20:18.017Z,31.49
2022-08-17T19:23:16.629Z,31.50
2022-08-17T19:26:07.487Z,31.48
2022-08-17T19:29:22.404Z,31.45
2022-08-17T19:32:12.967Z,31.47
2022-08-17T19:35:02.269Z,31.48
2022-08-17T19:38:01.991Z,31.43
2022-08-17T19:41:00.941Z,31.44
2022-08-17T19:44:07.782Z,31.47
2022-08-17T19:47:01.677Z,31.48
2022-08-17T19:50:04.003Z,31.46
2022-08-17T19:52:56.290Z,31.46
2022-08-17T19:55:53.941Z,31.44
2022-08-17T19:58:51.646Z,31.41
2022-08-17T20:01:44.574Z,31.37
2022-08-17T20:04:37.742Z,31.34
2022-08-17T20:07:28.691Z,31.35
2022-08-17T20:10:30.798Z,31.34
2022-08-17T20:13:33.179Z,31.36
2022-08-17T20:16:22.349Z,31.34
2022-08-17T20:19:20.837Z,31.27
2022-08-17T20:22:12.652Z,31.27
2022-08-17T20:25:06.594Z,31.25
2022-08-17T20:28:05.951Z,31.24
2022-08-17T20:30:55.407Z,31.20
2022-08-17T20:33:43.916Z,31.17
2022-08-17T20:36:36.856Z,31.15
2022-08-17T20:39:35.244Z,31.15
2022-08-17T20:42:32.135Z,31.15
2022-08-17T20:45:57.983Z,31.16
2022-08-17T20:48:50.654Z,31.15
2022-08-17T20:52:01.394Z,31.16
2022-08-17T20:54:54.193Z,31.15
2022-08-17T20:57:49.935Z,31.14
2022-08-17T21:00:45.635Z,31.14
2022-08-17T21:03:52.157Z,31.13
2022-08-17T21:07:15.252Z,31.13
2022-08-17T21:10:13.997Z,31.11
2022-08-17T21:13:23.559Z,31.12
2022-08-17T21:16:30.592Z,31.10
2022-08-17T21:19:31.054Z,31.13
2022-08-17T21:22:28.507Z,31.13
2022-08-17T21:25:34.365Z,31.23
2022-08-17T21:28:29.941Z,31.32
2022-08-17T21:31:34.405Z,31.32
2022-08-17T21:34:33.881Z,31.35
2022-08-17T21:37:35.824Z,31.37
2022-08-17T21:40:28.952Z,31.39
2022-08-17T21:43:25.273Z,31.42
2022-08-17T21:46:26.489Z,31.28
2022-08-17T21:49:17.838Z,31.15
2022-08-17T21:52:08.981Z,31.13
2022-08-17T21:55:00.282Z,31.08
2022-08-17T21:57:52.950Z,31.03
2022-08-17T22:01:14.832Z,30.98
2022-08-17T22:04:08.645Z,30.93
2022-08-17T22:06:58.923Z,30.91
2022-08-17T22:09:48.992Z,30.87
2022-08-17T22:12:37.487Z,30.82
2022-08-17T22:15:27.967Z,30.80
2022-08-17T22:18:20.186Z,30.79
2022-08-17T22:21:09.501Z,30.74
2022-08-17T22:24:06.903Z,30.75
2022-08-17T22:27:06.927Z,30.70
2022-08-17T22:29:58.359Z,30.65
2022-08-17T22:32:49.858Z,30.65
2022-08-17T22:35:42.636Z,30.61
2022-08-17T22:38:34.497Z,30.60
2022-08-17T22:41:34.406Z,30.59
2022-08-17T22:44:29.519Z,30.59
2022-08-17T22:47:32.155Z,30.57
2022-08-17T22:50:25.796Z,30.54
2022-08-17T22:53:35.315Z,30.53
2022-08-17T22:56:43.321Z,30.54
2022-08-17T22:59:44.208Z,30.56
2022-08-17T23:02:34.078Z,30.55
2022-08-17T23:05:25.458Z,30.61
2022-08-17T23:08:14.424Z,30.58
2022-08-17T23:11:03.129Z,30.60
2022-08-17T23:13:51.799Z,30.60
2022-08-17T23:16:42.406Z,30.57
2022-08-17T23:19:31.774Z,30.57
2022-08-17T23:22:21.783Z,30.58
2022-08-17T23:25:11.824Z,30.57
2022-08-17T23:28:01.504Z,30.56
2022-08-17T23:30:50.405Z,30.58
2022-08-17T23:33:39.895Z,30.57
2022-08-17T23:36:29.460Z,30.55
2022-08-17T23:39:24.484Z,30.56
2022-08-17T23:42:21.596Z,30.56
2022-08-17T23:45:10.931Z,30.56
2022-08-17T23:48:00.315Z,30.52
2022-08-17T23:50:49.186Z,30.58
2022-08-17T23:53:38.946Z,30.56
2022-08-17T23:56:28.821Z,30.55
2022-08-17T23:59:19.286Z,30.49
